EGHH - Bournemouth Airport
Distance from station: E 5mi, 14km
Updated: 08/19/2018 10:50am
Partly Cloudy
Partly Cloudy
 Wind from WSW
Wind: WSW 8 mph , 13 km/h
Temperature: 72°F , 22°C
Dew Point: 64°F , 18°C
Humidity: 78%
Barometer: 30.09 inHg , 1019 hPa
Clouds: Partly Cloudy
Visibility: 6 miles , 10 km
Cloud details: Partly Cloudy 3100 ft
2018/08/19 17:50 EGHH 191750Z 25007KT 210V300 9999 SCT031 22/18 Q1019